createdAt,value
2018-06-23T00:02:30.317Z,13.40
2018-06-23T00:06:33.963Z,13.40
2018-06-23T00:10:37.708Z,13.30
2018-06-23T00:14:41.401Z,13.30
2018-06-23T00:18:45.138Z,13.30
2018-06-23T00:22:48.800Z,13.20
2018-06-23T00:26:52.608Z,13.20
2018-06-23T00:30:56.304Z,13.20
2018-06-23T00:34:59.992Z,13.10
2018-06-23T00:39:03.900Z,13.10
2018-06-23T00:43:07.637Z,13.10
2018-06-23T00:47:11.350Z,13.00
2018-06-23T00:51:15.121Z,12.90
2018-06-23T00:55:18.847Z,12.90
2018-06-23T00:59:37.352Z,12.80
2018-06-23T01:03:41.064Z,12.80
2018-06-23T01:07:44.738Z,12.70
2018-06-23T01:11:48.457Z,12.80
2018-06-23T01:15:52.141Z,12.70
2018-06-23T01:19:55.795Z,12.70
2018-06-23T01:23:59.437Z,12.70
2018-06-23T01:28:03.111Z,12.70
2018-06-23T01:32:06.878Z,12.70
2018-06-23T01:36:10.562Z,12.70
2018-06-23T01:40:14.231Z,12.70
2018-06-23T01:44:17.871Z,12.70
2018-06-23T01:48:21.548Z,12.60
2018-06-23T01:52:25.264Z,12.60
2018-06-23T01:56:28.965Z,12.60
2018-06-23T02:00:32.602Z,12.60
2018-06-23T02:04:36.306Z,12.60
2018-06-23T02:08:39.987Z,12.50
2018-06-23T02:12:43.656Z,12.50
2018-06-23T02:17:54.459Z,12.50
2018-06-23T02:22:03.527Z,12.50
2018-06-23T02:26:12.432Z,12.50
2018-06-23T02:30:21.340Z,12.50
2018-06-23T02:34:30.421Z,12.50
2018-06-23T02:38:34.103Z,12.50
2018-06-23T02:42:37.799Z,12.50
2018-06-23T02:46:41.497Z,12.50
2018-06-23T02:50:45.148Z,12.50
2018-06-23T02:54:48.856Z,12.50
2018-06-23T02:58:52.616Z,12.50
2018-06-23T03:02:56.276Z,12.50
2018-06-23T03:06:59.928Z,12.50
2018-06-23T03:11:03.594Z,12.50
2018-06-23T03:15:07.293Z,12.50
2018-06-23T03:19:10.975Z,12.50
2018-06-23T03:23:14.664Z,12.50
2018-06-23T03:27:18.306Z,12.50
2018-06-23T03:31:22.029Z,12.50
2018-06-23T03:35:25.729Z,12.50
2018-06-23T03:39:29.428Z,12.50
2018-06-23T03:43:33.084Z,12.60
2018-06-23T03:47:36.816Z,12.50
2018-06-23T03:51:40.495Z,12.50
2018-06-23T03:55:44.219Z,12.50
2018-06-23T03:59:47.927Z,12.40
2018-06-23T04:03:51.565Z,12.40
2018-06-23T04:07:55.231Z,12.40
2018-06-23T04:11:58.892Z,12.40
2018-06-23T04:16:02.586Z,12.40
2018-06-23T04:20:06.295Z,12.40
2018-06-23T04:24:09.936Z,12.40
2018-06-23T04:28:13.609Z,12.40
2018-06-23T04:32:17.599Z,12.40
2018-06-23T04:36:21.299Z,12.40
2018-06-23T04:40:24.972Z,12.40
2018-06-23T04:44:28.635Z,12.40
2018-06-23T04:48:32.318Z,12.40
2018-06-23T04:56:39.379Z,12.40
2018-06-23T05:00:43.057Z,12.40
2018-06-23T05:04:46.689Z,12.40
2018-06-23T05:08:50.367Z,12.40
2018-06-23T05:12:54.044Z,12.40
2018-06-23T05:16:58.051Z,12.40
2018-06-23T05:21:01.801Z,12.50
2018-06-23T05:25:05.989Z,12.50
2018-06-23T05:29:09.704Z,12.50
2018-06-23T05:33:14.272Z,12.50
2018-06-23T05:37:17.948Z,12.50
2018-06-23T05:41:21.628Z,12.50
2018-06-23T05:45:25.320Z,12.60
2018-06-23T05:49:28.991Z,12.60
2018-06-23T05:53:32.801Z,12.60
2018-06-23T05:57:36.453Z,12.60
2018-06-23T06:01:40.100Z,12.70
2018-06-23T06:05:43.794Z,12.70
2018-06-23T06:09:47.468Z,12.80
2018-06-23T06:13:51.169Z,12.80
2018-06-23T06:17:54.831Z,12.80
2018-06-23T06:21:58.473Z,12.90
2018-06-23T06:26:02.251Z,12.90
2018-06-23T06:30:07.026Z,12.90
2018-06-23T06:34:10.713Z,12.90
2018-06-23T06:38:14.389Z,13.00
2018-06-23T06:42:18.084Z,13.00
2018-06-23T06:46:21.741Z,13.10
2018-06-23T06:50:25.399Z,13.10
2018-06-23T06:54:29.196Z,13.10
2018-06-23T06:58:32.876Z,13.10
2018-06-23T07:02:36.592Z,13.10
2018-06-23T07:06:40.435Z,13.10
2018-06-23T07:10:44.112Z,13.10
2018-06-23T07:14:47.816Z,13.20
2018-06-23T07:18:51.472Z,13.30
2018-06-23T07:22:55.152Z,13.30
2018-06-23T07:26:58.936Z,13.50
2018-06-23T07:31:02.588Z,13.60
2018-06-23T07:35:06.403Z,13.70
2018-06-23T07:39:10.946Z,13.80
2018-06-23T07:43:14.661Z,13.90
2018-06-23T07:47:18.373Z,14.00
2018-06-23T07:51:22.089Z,14.00
2018-06-23T07:55:25.819Z,13.90
2018-06-23T07:59:29.463Z,13.90
2018-06-23T08:03:33.753Z,14.00
2018-06-23T08:07:37.414Z,14.10
2018-06-23T08:11:41.161Z,14.40
2018-06-23T08:15:44.875Z,14.90
2018-06-23T08:19:48.555Z,15.40
2018-06-23T08:23:52.276Z,15.70
2018-06-23T08:27:55.959Z,16.10
2018-06-23T08:31:59.689Z,16.10
2018-06-23T08:36:03.394Z,15.90
2018-06-23T08:40:07.084Z,15.70
2018-06-23T08:44:10.812Z,15.70
2018-06-23T08:48:14.494Z,15.80
2018-06-23T08:52:18.732Z,15.80
2018-06-23T08:56:22.538Z,15.70
2018-06-23T09:00:26.172Z,15.70
2018-06-23T09:04:29.867Z,15.80
2018-06-23T09:08:33.535Z,15.80
2018-06-23T09:12:37.211Z,15.90
2018-06-23T09:16:40.890Z,15.90
2018-06-23T09:20:44.559Z,16.00
2018-06-23T09:24:48.233Z,15.90
2018-06-23T09:28:51.883Z,16.00
2018-06-23T09:32:55.571Z,16.00
2018-06-23T09:36:59.340Z,16.10
2018-06-23T09:41:03.033Z,16.20
2018-06-23T09:45:06.787Z,16.30
2018-06-23T09:49:10.464Z,16.50
2018-06-23T09:53:14.149Z,16.50
2018-06-23T09:57:17.854Z,16.50
2018-06-23T10:01:21.649Z,16.60
2018-06-23T10:05:25.316Z,16.60
2018-06-23T10:09:28.979Z,16.70
2018-06-23T10:13:32.645Z,16.70
2018-06-23T10:17:36.300Z,16.60
2018-06-23T10:21:39.973Z,16.60
2018-06-23T10:25:43.663Z,16.60
2018-06-23T10:29:47.335Z,16.60
2018-06-23T10:33:50.990Z,16.60
2018-06-23T10:37:54.642Z,16.70
2018-06-23T10:41:58.309Z,16.80
2018-06-23T10:46:02.040Z,17.00
2018-06-23T10:50:05.939Z,17.10
2018-06-23T10:54:09.678Z,17.10
2018-06-23T10:58:13.330Z,17.20
2018-06-23T11:02:17.030Z,17.20
2018-06-23T11:06:20.712Z,17.20
2018-06-23T11:10:24.404Z,17.30
2018-06-23T11:14:28.037Z,17.20
2018-06-23T11:18:31.751Z,17.20
2018-06-23T11:22:35.430Z,17.20
2018-06-23T11:26:39.107Z,17.20
2018-06-23T11:30:42.790Z,17.20
2018-06-23T11:34:46.426Z,17.40
2018-06-23T11:38:50.091Z,17.40
2018-06-23T11:42:53.773Z,17.40
2018-06-23T11:46:57.445Z,17.40
2018-06-23T11:51:01.100Z,17.50
2018-06-23T11:55:04.796Z,17.50
2018-06-23T11:59:08.500Z,17.60
2018-06-23T12:03:12.237Z,17.60
2018-06-23T12:07:15.886Z,17.60
2018-06-23T12:11:19.965Z,17.50
2018-06-23T12:15:23.667Z,17.60
2018-06-23T12:19:27.312Z,17.70
2018-06-23T12:23:30.979Z,17.80
2018-06-23T12:27:34.704Z,17.70
2018-06-23T12:31:38.504Z,17.70
2018-06-23T12:35:42.195Z,17.60
2018-06-23T12:39:45.876Z,17.60
2018-06-23T12:43:49.607Z,17.60
2018-06-23T12:47:53.281Z,17.50
2018-06-23T12:51:56.978Z,17.40
2018-06-23T12:56:00.682Z,17.30
2018-06-23T13:00:05.212Z,17.40
2018-06-23T13:04:08.919Z,17.40
2018-06-23T13:08:12.657Z,17.30
2018-06-23T13:12:16.305Z,17.20
2018-06-23T13:16:19.956Z,17.10
2018-06-23T13:20:23.639Z,17.20
2018-06-23T13:24:27.313Z,17.20
2018-06-23T13:28:31.021Z,17.20
2018-06-23T13:32:34.715Z,17.20
2018-06-23T13:36:38.500Z,17.20
2018-06-23T13:40:42.206Z,17.30
2018-06-23T13:44:45.899Z,17.50
2018-06-23T13:48:49.585Z,17.70
2018-06-23T13:52:53.259Z,18.00
2018-06-23T13:56:56.973Z,18.10
2018-06-23T14:01:00.744Z,18.20
2018-06-23T14:05:04.531Z,18.30
2018-06-23T14:09:09.997Z,18.50
2018-06-23T14:13:13.690Z,18.50
2018-06-23T14:21:21.272Z,18.70
2018-06-23T14:25:25.071Z,18.60
2018-06-23T14:29:28.887Z,18.40
2018-06-23T14:33:32.568Z,18.30
2018-06-23T14:37:36.284Z,18.20
2018-06-23T14:41:40.100Z,18.10
2018-06-23T14:45:43.800Z,18.10
2018-06-23T14:49:47.504Z,18.10
2018-06-23T14:53:51.193Z,18.00
2018-06-23T14:57:54.984Z,18.00
2018-06-23T15:01:59.496Z,18.00
2018-06-23T15:06:06.085Z,18.00
2018-06-23T15:10:21.167Z,18.10
2018-06-23T15:14:25.340Z,18.10
2018-06-23T15:18:29.028Z,18.00
2018-06-23T15:22:32.716Z,18.00
2018-06-23T15:26:36.401Z,18.00
2018-06-23T15:30:40.083Z,17.90
2018-06-23T15:34:43.708Z,17.90
2018-06-23T15:38:47.375Z,17.90
2018-06-23T15:42:51.070Z,17.90
2018-06-23T15:46:54.775Z,17.80
2018-06-23T15:50:58.513Z,17.70
2018-06-23T15:55:02.153Z,17.70
2018-06-23T15:59:05.872Z,17.70
2018-06-23T16:03:09.542Z,17.60
2018-06-23T16:07:13.326Z,17.50
2018-06-23T16:11:16.999Z,17.40
2018-06-23T16:15:20.756Z,17.40
2018-06-23T16:19:24.562Z,17.40
2018-06-23T16:23:28.373Z,17.40
2018-06-23T16:27:32.100Z,17.30
2018-06-23T16:31:35.779Z,17.30
2018-06-23T16:35:39.582Z,17.30
2018-06-23T16:39:43.255Z,17.20
2018-06-23T16:43:46.927Z,17.10
2018-06-23T16:47:50.600Z,17.00
2018-06-23T16:51:54.259Z,17.00
2018-06-23T16:55:57.896Z,16.90
2018-06-23T17:00:01.601Z,16.90
2018-06-23T17:04:05.379Z,16.80
2018-06-23T17:08:09.040Z,16.90
2018-06-23T17:12:12.831Z,16.80
2018-06-23T17:16:16.528Z,16.70
2018-06-23T17:20:20.205Z,16.70
2018-06-23T17:24:23.884Z,16.60
2018-06-23T17:28:27.544Z,16.50
2018-06-23T17:32:31.212Z,16.40
2018-06-23T17:36:34.858Z,16.40
2018-06-23T17:40:38.548Z,16.40
2018-06-23T17:44:42.204Z,16.50
2018-06-23T17:48:45.959Z,16.40
2018-06-23T17:52:49.634Z,16.40
2018-06-23T17:56:53.299Z,16.40
2018-06-23T18:00:56.924Z,16.40
2018-06-23T18:05:00.603Z,16.30
2018-06-23T18:09:06.584Z,16.30
2018-06-23T18:13:10.343Z,16.30
2018-06-23T18:17:14.012Z,16.30
2018-06-23T18:21:17.669Z,16.30
2018-06-23T18:25:21.487Z,16.30
2018-06-23T18:29:25.156Z,16.20
2018-06-23T18:33:28.846Z,16.20
2018-06-23T18:37:32.519Z,16.20
2018-06-23T18:41:36.195Z,16.20
2018-06-23T18:45:39.871Z,16.20
2018-06-23T18:49:43.539Z,16.20
2018-06-23T18:53:47.219Z,16.20
2018-06-23T18:57:50.955Z,16.10
2018-06-23T19:01:54.596Z,16.10
2018-06-23T19:05:58.377Z,16.10
2018-06-23T19:10:02.039Z,16.10
2018-06-23T19:14:05.965Z,16.10
2018-06-23T19:18:09.654Z,16.00
2018-06-23T19:22:13.328Z,16.00
2018-06-23T19:26:17.023Z,16.00
2018-06-23T19:30:20.679Z,16.00
2018-06-23T19:34:24.351Z,16.00
2018-06-23T19:38:28.121Z,15.90
2018-06-23T19:42:31.745Z,15.90
2018-06-23T19:46:35.520Z,15.80
2018-06-23T19:50:39.200Z,15.80
2018-06-23T19:54:42.897Z,15.80
2018-06-23T19:58:46.575Z,15.80
2018-06-23T20:02:50.185Z,15.70
2018-06-23T20:06:53.853Z,15.70
2018-06-23T20:10:57.525Z,15.70
2018-06-23T20:15:01.221Z,15.60
2018-06-23T20:19:04.977Z,15.60
2018-06-23T20:23:08.624Z,15.50
2018-06-23T20:27:12.288Z,15.50
2018-06-23T20:31:16.004Z,15.50
2018-06-23T20:35:19.671Z,15.50
2018-06-23T20:39:23.360Z,15.40
2018-06-23T20:43:26.985Z,15.40
2018-06-23T20:47:30.655Z,15.40
2018-06-23T20:51:34.340Z,15.40
2018-06-23T20:55:38.030Z,15.40
2018-06-23T20:59:41.699Z,15.40
2018-06-23T21:03:45.339Z,15.30
2018-06-23T21:07:49.040Z,15.20
2018-06-23T21:11:52.712Z,15.20
2018-06-23T21:15:56.419Z,15.20
2018-06-23T21:20:00.102Z,15.10
2018-06-23T21:24:03.764Z,15.00
2018-06-23T21:28:07.453Z,15.00
2018-06-23T21:32:11.196Z,14.90
2018-06-23T21:36:14.858Z,14.90
2018-06-23T21:40:18.556Z,14.80
2018-06-23T21:44:22.188Z,14.80
2018-06-23T21:48:25.853Z,14.80
2018-06-23T21:52:29.505Z,14.70
2018-06-23T21:56:33.175Z,14.70
2018-06-23T22:00:40.072Z,14.60
2018-06-23T22:04:43.748Z,14.60
2018-06-23T22:08:47.377Z,14.50
2018-06-23T22:12:51.113Z,14.50
2018-06-23T22:16:54.941Z,14.40
2018-06-23T22:20:58.608Z,14.40
2018-06-23T22:25:02.261Z,14.30
2018-06-23T22:29:05.914Z,14.30
2018-06-23T22:33:09.568Z,14.20
2018-06-23T22:37:13.259Z,14.20
2018-06-23T22:41:17.026Z,14.10
2018-06-23T22:45:20.716Z,14.10
2018-06-23T22:49:24.350Z,14.00
2018-06-23T22:53:28.037Z,13.90
2018-06-23T22:57:31.840Z,13.90
2018-06-23T23:01:35.589Z,13.80
2018-06-23T23:05:39.302Z,13.80
2018-06-23T23:09:43.044Z,13.80
2018-06-23T23:13:46.744Z,13.80
2018-06-23T23:17:50.408Z,13.70
2018-06-23T23:21:54.098Z,13.60
2018-06-23T23:25:57.772Z,13.60
2018-06-23T23:30:01.419Z,13.60
2018-06-23T23:34:05.302Z,13.50
2018-06-23T23:38:09.047Z,13.50
2018-06-23T23:42:12.717Z,13.50
2018-06-23T23:46:16.456Z,13.40
2018-06-23T23:50:20.117Z,13.40
2018-06-23T23:54:23.775Z,13.40
2018-06-23T23:58:27.472Z,13.30
